sensor_id;sensor_type;location;lat;lon;timestamp;P1;durP1;ratioP1;P2;durP2;ratioP2
45206;SDS011;30950;53.086;21.576;2022-09-14T00:01:27;19.77;;;16.48;;
45206;SDS011;30950;53.086;21.576;2022-09-14T00:03:58;19.15;;;16.92;;
45206;SDS011;30950;53.086;21.576;2022-09-14T00:06:32;19.25;;;17.30;;
45206;SDS011;30950;53.086;21.576;2022-09-14T00:09:00;21.65;;;19.35;;
45206;SDS011;30950;53.086;21.576;2022-09-14T00:11:29;21.85;;;19.30;;
45206;SDS011;30950;53.086;21.576;2022-09-14T00:13:58;19.80;;;17.80;;
45206;SDS011;30950;53.086;21.576;2022-09-14T00:16:30;23.15;;;19.17;;
45206;SDS011;30950;53.086;21.576;2022-09-14T00:19:00;21.17;;;19.05;;
45206;SDS011;30950;53.086;21.576;2022-09-14T00:21:33;21.40;;;19.00;;
45206;SDS011;30950;53.086;21.576;2022-09-14T00:24:03;19.48;;;17.38;;
45206;SDS011;30950;53.086;21.576;2022-09-14T00:26:33;20.67;;;18.25;;
45206;SDS011;30950;53.086;21.576;2022-09-14T00:29:01;20.70;;;18.52;;
45206;SDS011;30950;53.086;21.576;2022-09-14T00:31:31;21.65;;;19.10;;
45206;SDS011;30950;53.086;21.576;2022-09-14T00:34:01;21.85;;;19.40;;
45206;SDS011;30950;53.086;21.576;2022-09-14T00:36:30;24.75;;;19.98;;
45206;SDS011;30950;53.086;21.576;2022-09-14T00:38:58;24.05;;;20.65;;
45206;SDS011;30950;53.086;21.576;2022-09-14T00:41:28;26.00;;;23.23;;
45206;SDS011;30950;53.086;21.576;2022-09-14T00:44:02;23.23;;;20.45;;
45206;SDS011;30950;53.086;21.576;2022-09-14T00:46:31;24.98;;;20.00;;
45206;SDS011;30950;53.086;21.576;2022-09-14T00:49:32;23.45;;;20.95;;
45206;SDS011;30950;53.086;21.576;2022-09-14T00:54:41;22.98;;;20.58;;
45206;SDS011;30950;53.086;21.576;2022-09-14T00:57:12;26.33;;;23.52;;
45206;SDS011;30950;53.086;21.576;2022-09-14T00:59:41;25.63;;;22.25;;
45206;SDS011;30950;53.086;21.576;2022-09-14T01:02:09;25.15;;;22.50;;
45206;SDS011;30950;53.086;21.576;2022-09-14T01:04:41;24.60;;;21.95;;
45206;SDS011;30950;53.086;21.576;2022-09-14T01:13:13;25.60;;;22.83;;
45206;SDS011;30950;53.086;21.576;2022-09-14T01:19:25;25.25;;;22.55;;
45206;SDS011;30950;53.086;21.576;2022-09-14T01:22:20;26.67;;;22.95;;
45206;SDS011;30950;53.086;21.576;2022-09-14T01:25:12;25.35;;;22.65;;
45206;SDS011;30950;53.086;21.576;2022-09-14T01:27:55;26.55;;;23.60;;
45206;SDS011;30950;53.086;21.576;2022-09-14T01:30:27;28.20;;;23.30;;
45206;SDS011;30950;53.086;21.576;2022-09-14T01:33:05;28.88;;;24.33;;
45206;SDS011;30950;53.086;21.576;2022-09-14T01:35:51;29.23;;;25.15;;
45206;SDS011;30950;53.086;21.576;2022-09-14T01:38:29;29.75;;;25.70;;
45206;SDS011;30950;53.086;21.576;2022-09-14T01:41:02;28.50;;;25.30;;
45206;SDS011;30950;53.086;21.576;2022-09-14T01:43:34;28.95;;;25.85;;
45206;SDS011;30950;53.086;21.576;2022-09-14T01:46:07;27.48;;;24.52;;
45206;SDS011;30950;53.086;21.576;2022-09-14T01:51:25;33.13;;;28.08;;
45206;SDS011;30950;53.086;21.576;2022-09-14T01:54:04;32.90;;;26.52;;
45206;SDS011;30950;53.086;21.576;2022-09-14T01:56:37;30.13;;;26.90;;
45206;SDS011;30950;53.086;21.576;2022-09-14T02:02:43;31.77;;;27.55;;
45206;SDS011;30950;53.086;21.576;2022-09-14T02:07:36;32.85;;;28.58;;
45206;SDS011;30950;53.086;21.576;2022-09-14T02:10:05;29.45;;;25.25;;
45206;SDS011;30950;53.086;21.576;2022-09-14T02:12:37;31.85;;;25.05;;
45206;SDS011;30950;53.086;21.576;2022-09-14T02:15:05;31.85;;;26.80;;
45206;SDS011;30950;53.086;21.576;2022-09-14T02:17:36;28.58;;;25.20;;
45206;SDS011;30950;53.086;21.576;2022-09-14T02:20:04;35.97;;;30.30;;
45206;SDS011;30950;53.086;21.576;2022-09-14T02:22:33;31.38;;;27.55;;
45206;SDS011;30950;53.086;21.576;2022-09-14T02:25:01;28.75;;;25.23;;
45206;SDS011;30950;53.086;21.576;2022-09-14T02:27:29;34.80;;;27.85;;
45206;SDS011;30950;53.086;21.576;2022-09-14T02:29:56;29.75;;;26.13;;
45206;SDS011;30950;53.086;21.576;2022-09-14T02:32:29;30.67;;;25.98;;
45206;SDS011;30950;53.086;21.576;2022-09-14T02:35:11;32.88;;;27.30;;
45206;SDS011;30950;53.086;21.576;2022-09-14T02:43:03;31.08;;;26.90;;
45206;SDS011;30950;53.086;21.576;2022-09-14T02:50:42;34.72;;;27.15;;
45206;SDS011;30950;53.086;21.576;2022-09-14T02:56:06;30.85;;;26.17;;
45206;SDS011;30950;53.086;21.576;2022-09-14T02:58:36;30.17;;;26.25;;
45206;SDS011;30950;53.086;21.576;2022-09-14T03:01:06;31.13;;;26.00;;
45206;SDS011;30950;53.086;21.576;2022-09-14T03:03:35;30.80;;;26.92;;
45206;SDS011;30950;53.086;21.576;2022-09-14T03:06:02;30.80;;;26.60;;
45206;SDS011;30950;53.086;21.576;2022-09-14T03:08:31;31.55;;;24.95;;
45206;SDS011;30950;53.086;21.576;2022-09-14T03:10:58;31.45;;;26.70;;
45206;SDS011;30950;53.086;21.576;2022-09-14T03:13:26;29.98;;;23.92;;
45206;SDS011;30950;53.086;21.576;2022-09-14T03:15:53;32.33;;;25.15;;
45206;SDS011;30950;53.086;21.576;2022-09-14T03:18:21;28.73;;;25.63;;
45206;SDS011;30950;53.086;21.576;2022-09-14T03:20:49;33.00;;;27.50;;
45206;SDS011;30950;53.086;21.576;2022-09-14T03:23:16;31.65;;;26.45;;
45206;SDS011;30950;53.086;21.576;2022-09-14T03:25:43;27.83;;;23.20;;
45206;SDS011;30950;53.086;21.576;2022-09-14T03:28:11;33.22;;;26.23;;
45206;SDS011;30950;53.086;21.576;2022-09-14T03:30:38;29.85;;;25.67;;
45206;SDS011;30950;53.086;21.576;2022-09-14T03:33:06;30.42;;;25.67;;
45206;SDS011;30950;53.086;21.576;2022-09-14T03:35:33;29.95;;;25.30;;
45206;SDS011;30950;53.086;21.576;2022-09-14T03:38:01;28.50;;;23.63;;
45206;SDS011;30950;53.086;21.576;2022-09-14T03:40:29;29.15;;;24.70;;
45206;SDS011;30950;53.086;21.576;2022-09-14T03:42:57;33.08;;;24.58;;
45206;SDS011;30950;53.086;21.576;2022-09-14T03:45:24;32.53;;;25.70;;
45206;SDS011;30950;53.086;21.576;2022-09-14T03:47:52;29.92;;;25.50;;
45206;SDS011;30950;53.086;21.576;2022-09-14T03:50:19;32.53;;;27.05;;
45206;SDS011;30950;53.086;21.576;2022-09-14T03:52:46;31.73;;;26.35;;
45206;SDS011;30950;53.086;21.576;2022-09-14T03:55:14;30.10;;;25.40;;
45206;SDS011;30950;53.086;21.576;2022-09-14T03:57:41;26.95;;;24.05;;
45206;SDS011;30950;53.086;21.576;2022-09-14T04:00:09;30.17;;;25.73;;
45206;SDS011;30950;53.086;21.576;2022-09-14T04:02:38;29.27;;;24.08;;
45206;SDS011;30950;53.086;21.576;2022-09-14T04:05:06;30.95;;;25.08;;
45206;SDS011;30950;53.086;21.576;2022-09-14T04:07:34;24.83;;;21.42;;
45206;SDS011;30950;53.086;21.576;2022-09-14T04:10:02;29.98;;;23.52;;
45206;SDS011;30950;53.086;21.576;2022-09-14T04:12:35;29.98;;;23.73;;
45206;SDS011;30950;53.086;21.576;2022-09-14T04:15:06;32.60;;;24.05;;
45206;SDS011;30950;53.086;21.576;2022-09-14T04:17:34;34.10;;;25.50;;
45206;SDS011;30950;53.086;21.576;2022-09-14T04:20:02;28.67;;;24.08;;
45206;SDS011;30950;53.086;21.576;2022-09-14T04:22:29;33.10;;;26.05;;
45206;SDS011;30950;53.086;21.576;2022-09-14T04:24:57;30.55;;;25.17;;
45206;SDS011;30950;53.086;21.576;2022-09-14T04:27:24;33.95;;;25.70;;
45206;SDS011;30950;53.086;21.576;2022-09-14T04:29:51;28.92;;;24.25;;
45206;SDS011;30950;53.086;21.576;2022-09-14T04:32:19;29.35;;;25.15;;
45206;SDS011;30950;53.086;21.576;2022-09-14T04:34:47;28.95;;;24.67;;
45206;SDS011;30950;53.086;21.576;2022-09-14T04:37:14;27.30;;;24.40;;
45206;SDS011;30950;53.086;21.576;2022-09-14T04:39:42;30.77;;;25.90;;
45206;SDS011;30950;53.086;21.576;2022-09-14T04:42:09;31.13;;;25.85;;
45206;SDS011;30950;53.086;21.576;2022-09-14T04:44:36;29.88;;;25.65;;
45206;SDS011;30950;53.086;21.576;2022-09-14T04:47:04;32.22;;;25.33;;
45206;SDS011;30950;53.086;21.576;2022-09-14T04:49:31;27.75;;;24.35;;
45206;SDS011;30950;53.086;21.576;2022-09-14T04:51:58;30.17;;;26.05;;
45206;SDS011;30950;53.086;21.576;2022-09-14T04:54:26;32.33;;;24.95;;
45206;SDS011;30950;53.086;21.576;2022-09-14T04:56:53;29.60;;;25.27;;
45206;SDS011;30950;53.086;21.576;2022-09-14T04:59:20;27.20;;;23.75;;
45206;SDS011;30950;53.086;21.576;2022-09-14T05:01:48;27.48;;;22.70;;
45206;SDS011;30950;53.086;21.576;2022-09-14T05:04:17;24.63;;;20.92;;
45206;SDS011;30950;53.086;21.576;2022-09-14T05:06:44;28.92;;;22.60;;
45206;SDS011;30950;53.086;21.576;2022-09-14T05:09:13;23.40;;;19.67;;
45206;SDS011;30950;53.086;21.576;2022-09-14T05:11:42;27.30;;;20.15;;
45206;SDS011;30950;53.086;21.576;2022-09-14T05:14:10;24.17;;;21.25;;
45206;SDS011;30950;53.086;21.576;2022-09-14T05:16:40;22.55;;;18.98;;
45206;SDS011;30950;53.086;21.576;2022-09-14T05:19:12;25.42;;;21.33;;
45206;SDS011;30950;53.086;21.576;2022-09-14T05:21:42;25.88;;;22.63;;
45206;SDS011;30950;53.086;21.576;2022-09-14T05:24:12;26.08;;;19.23;;
45206;SDS011;30950;53.086;21.576;2022-09-14T05:26:41;25.80;;;20.83;;
45206;SDS011;30950;53.086;21.576;2022-09-14T05:29:13;23.20;;;19.80;;
45206;SDS011;30950;53.086;21.576;2022-09-14T05:31:43;28.30;;;22.98;;
45206;SDS011;30950;53.086;21.576;2022-09-14T05:34:13;24.02;;;20.02;;
45206;SDS011;30950;53.086;21.576;2022-09-14T05:36:40;25.60;;;21.17;;
45206;SDS011;30950;53.086;21.576;2022-09-14T05:39:08;30.00;;;21.50;;
45206;SDS011;30950;53.086;21.576;2022-09-14T05:41:36;24.52;;;20.20;;
45206;SDS011;30950;53.086;21.576;2022-09-14T05:44:04;24.05;;;19.90;;
45206;SDS011;30950;53.086;21.576;2022-09-14T05:46:32;26.25;;;20.90;;
45206;SDS011;30950;53.086;21.576;2022-09-14T05:49:00;24.10;;;20.65;;
45206;SDS011;30950;53.086;21.576;2022-09-14T05:51:27;24.27;;;19.67;;
45206;SDS011;30950;53.086;21.576;2022-09-14T05:53:56;24.08;;;19.80;;
45206;SDS011;30950;53.086;21.576;2022-09-14T05:56:25;24.30;;;20.92;;
45206;SDS011;30950;53.086;21.576;2022-09-14T05:58:54;24.35;;;18.90;;
45206;SDS011;30950;53.086;21.576;2022-09-14T06:01:22;30.00;;;20.75;;
45206;SDS011;30950;53.086;21.576;2022-09-14T06:03:53;27.00;;;20.42;;
45206;SDS011;30950;53.086;21.576;2022-09-14T06:06:22;28.77;;;22.73;;
45206;SDS011;30950;53.086;21.576;2022-09-14T06:08:50;28.67;;;21.30;;
45206;SDS011;30950;53.086;21.576;2022-09-14T06:11:20;31.63;;;22.40;;
45206;SDS011;30950;53.086;21.576;2022-09-14T06:13:50;31.20;;;22.88;;
45206;SDS011;30950;53.086;21.576;2022-09-14T06:16:18;32.20;;;23.92;;
45206;SDS011;30950;53.086;21.576;2022-09-14T06:18:47;32.13;;;23.27;;
45206;SDS011;30950;53.086;21.576;2022-09-14T06:21:15;32.13;;;21.90;;
45206;SDS011;30950;53.086;21.576;2022-09-14T06:23:45;32.22;;;23.60;;
45206;SDS011;30950;53.086;21.576;2022-09-14T06:26:14;35.30;;;23.60;;
45206;SDS011;30950;53.086;21.576;2022-09-14T06:28:41;32.63;;;23.10;;
45206;SDS011;30950;53.086;21.576;2022-09-14T06:31:12;32.65;;;22.33;;
45206;SDS011;30950;53.086;21.576;2022-09-14T06:33:42;34.90;;;22.30;;
45206;SDS011;30950;53.086;21.576;2022-09-14T06:36:14;30.60;;;21.23;;
45206;SDS011;30950;53.086;21.576;2022-09-14T06:38:44;31.48;;;22.42;;
45206;SDS011;30950;53.086;21.576;2022-09-14T06:41:13;31.40;;;22.95;;
45206;SDS011;30950;53.086;21.576;2022-09-14T06:43:46;31.33;;;22.23;;
45206;SDS011;30950;53.086;21.576;2022-09-14T06:46:18;33.25;;;23.27;;
45206;SDS011;30950;53.086;21.576;2022-09-14T06:48:49;37.40;;;25.60;;
45206;SDS011;30950;53.086;21.576;2022-09-14T06:51:19;35.42;;;25.38;;
45206;SDS011;30950;53.086;21.576;2022-09-14T06:53:49;37.05;;;24.90;;
45206;SDS011;30950;53.086;21.576;2022-09-14T06:56:17;34.28;;;25.75;;
45206;SDS011;30950;53.086;21.576;2022-09-14T06:58:45;33.58;;;23.67;;
45206;SDS011;30950;53.086;21.576;2022-09-14T07:01:15;36.63;;;24.90;;
45206;SDS011;30950;53.086;21.576;2022-09-14T07:03:44;35.65;;;24.60;;
45206;SDS011;30950;53.086;21.576;2022-09-14T07:06:13;29.77;;;22.88;;
45206;SDS011;30950;53.086;21.576;2022-09-14T07:08:43;27.02;;;20.20;;
45206;SDS011;30950;53.086;21.576;2022-09-14T07:11:11;28.13;;;21.25;;
45206;SDS011;30950;53.086;21.576;2022-09-14T07:13:39;29.80;;;21.08;;
45206;SDS011;30950;53.086;21.576;2022-09-14T07:16:07;28.88;;;21.17;;
45206;SDS011;30950;53.086;21.576;2022-09-14T07:18:35;26.90;;;21.23;;
45206;SDS011;30950;53.086;21.576;2022-09-14T07:23:44;22.00;;;17.38;;
45206;SDS011;30950;53.086;21.576;2022-09-14T07:26:16;20.63;;;15.85;;
45206;SDS011;30950;53.086;21.576;2022-09-14T07:28:53;22.52;;;15.40;;
45206;SDS011;30950;53.086;21.576;2022-09-14T07:31:35;22.00;;;15.13;;
45206;SDS011;30950;53.086;21.576;2022-09-14T07:34:08;19.00;;;14.98;;
45206;SDS011;30950;53.086;21.576;2022-09-14T07:36:36;24.00;;;15.18;;
45206;SDS011;30950;53.086;21.576;2022-09-14T07:39:05;17.00;;;12.23;;
45206;SDS011;30950;53.086;21.576;2022-09-14T07:41:34;21.42;;;13.18;;
45206;SDS011;30950;53.086;21.576;2022-09-14T07:44:03;17.10;;;11.70;;
45206;SDS011;30950;53.086;21.576;2022-09-14T07:46:35;14.02;;;11.32;;
45206;SDS011;30950;53.086;21.576;2022-09-14T07:49:05;17.33;;;10.38;;
45206;SDS011;30950;53.086;21.576;2022-09-14T07:51:33;14.50;;;10.05;;
45206;SDS011;30950;53.086;21.576;2022-09-14T07:54:03;16.65;;;10.32;;
45206;SDS011;30950;53.086;21.576;2022-09-14T07:56:31;15.05;;;10.35;;
45206;SDS011;30950;53.086;21.576;2022-09-14T07:59:00;14.18;;;10.43;;
45206;SDS011;30950;53.086;21.576;2022-09-14T08:01:49;16.55;;;10.00;;
45206;SDS011;30950;53.086;21.576;2022-09-14T08:04:17;15.02;;;10.55;;
45206;SDS011;30950;53.086;21.576;2022-09-14T08:06:44;15.65;;;10.05;;
45206;SDS011;30950;53.086;21.576;2022-09-14T08:09:11;14.18;;;10.75;;
45206;SDS011;30950;53.086;21.576;2022-09-14T08:11:39;16.08;;;10.35;;
45206;SDS011;30950;53.086;21.576;2022-09-14T08:14:08;13.07;;;9.27;;
45206;SDS011;30950;53.086;21.576;2022-09-14T08:16:37;14.63;;;10.57;;
45206;SDS011;30950;53.086;21.576;2022-09-14T08:19:13;15.00;;;9.55;;
45206;SDS011;30950;53.086;21.576;2022-09-14T08:21:43;12.43;;;8.75;;
45206;SDS011;30950;53.086;21.576;2022-09-14T08:24:14;14.57;;;8.88;;
45206;SDS011;30950;53.086;21.576;2022-09-14T08:26:43;13.27;;;7.70;;
45206;SDS011;30950;53.086;21.576;2022-09-14T08:29:12;11.25;;;7.07;;
45206;SDS011;30950;53.086;21.576;2022-09-14T08:31:40;10.70;;;6.75;;
45206;SDS011;30950;53.086;21.576;2022-09-14T08:34:10;8.77;;;6.63;;
45206;SDS011;30950;53.086;21.576;2022-09-14T08:36:38;10.45;;;7.13;;
45206;SDS011;30950;53.086;21.576;2022-09-14T08:39:07;9.27;;;6.80;;
45206;SDS011;30950;53.086;21.576;2022-09-14T08:46:38;10.63;;;5.93;;
45206;SDS011;30950;53.086;21.576;2022-09-14T08:49:14;10.10;;;6.18;;
45206;SDS011;30950;53.086;21.576;2022-09-14T08:51:44;6.97;;;4.45;;
45206;SDS011;30950;53.086;21.576;2022-09-14T08:54:12;9.45;;;4.60;;
45206;SDS011;30950;53.086;21.576;2022-09-14T08:56:40;10.43;;;4.35;;
45206;SDS011;30950;53.086;21.576;2022-09-14T08:59:17;6.43;;;3.42;;
45206;SDS011;30950;53.086;21.576;2022-09-14T09:07:48;6.80;;;3.97;;
45206;SDS011;30950;53.086;21.576;2022-09-14T09:10:28;5.53;;;3.50;;
45206;SDS011;30950;53.086;21.576;2022-09-14T09:12:58;6.82;;;3.88;;
45206;SDS011;30950;53.086;21.576;2022-09-14T09:15:46;6.18;;;4.38;;
45206;SDS011;30950;53.086;21.576;2022-09-14T09:21:20;7.95;;;4.13;;
45206;SDS011;30950;53.086;21.576;2022-09-14T09:23:54;7.07;;;4.03;;
45206;SDS011;30950;53.086;21.576;2022-09-14T09:26:30;5.55;;;3.67;;
45206;SDS011;30950;53.086;21.576;2022-09-14T09:28:59;6.03;;;3.45;;
45206;SDS011;30950;53.086;21.576;2022-09-14T09:31:50;5.93;;;3.03;;
45206;SDS011;30950;53.086;21.576;2022-09-14T09:34:46;6.07;;;3.35;;
45206;SDS011;30950;53.086;21.576;2022-09-14T09:37:25;6.75;;;3.28;;
45206;SDS011;30950;53.086;21.576;2022-09-14T09:39:53;3.90;;;2.80;;
45206;SDS011;30950;53.086;21.576;2022-09-14T09:42:22;5.85;;;2.90;;
45206;SDS011;30950;53.086;21.576;2022-09-14T09:44:52;6.47;;;2.85;;
45206;SDS011;30950;53.086;21.576;2022-09-14T09:47:36;6.35;;;2.88;;
45206;SDS011;30950;53.086;21.576;2022-09-14T09:50:20;5.22;;;3.25;;
45206;SDS011;30950;53.086;21.576;2022-09-14T09:52:52;7.85;;;3.20;;
45206;SDS011;30950;53.086;21.576;2022-09-14T09:55:24;5.80;;;2.90;;
45206;SDS011;30950;53.086;21.576;2022-09-14T09:58:19;5.70;;;3.10;;
45206;SDS011;30950;53.086;21.576;2022-09-14T10:01:16;6.50;;;3.35;;
45206;SDS011;30950;53.086;21.576;2022-09-14T10:06:42;7.20;;;2.55;;
45206;SDS011;30950;53.086;21.576;2022-09-14T10:09:12;7.40;;;3.17;;
45206;SDS011;30950;53.086;21.576;2022-09-14T10:11:41;6.32;;;2.40;;
45206;SDS011;30950;53.086;21.576;2022-09-14T10:14:21;6.20;;;2.70;;
45206;SDS011;30950;53.086;21.576;2022-09-14T10:19:54;5.97;;;3.07;;
45206;SDS011;30950;53.086;21.576;2022-09-14T10:22:27;6.00;;;2.65;;
45206;SDS011;30950;53.086;21.576;2022-09-14T10:27:41;3.92;;;2.35;;
45206;SDS011;30950;53.086;21.576;2022-09-14T10:30:15;3.70;;;2.20;;
45206;SDS011;30950;53.086;21.576;2022-09-14T10:33:03;4.53;;;2.53;;
45206;SDS011;30950;53.086;21.576;2022-09-14T10:38:09;5.93;;;2.67;;
45206;SDS011;30950;53.086;21.576;2022-09-14T10:40:42;5.55;;;2.30;;
45206;SDS011;30950;53.086;21.576;2022-09-14T10:43:15;4.18;;;2.40;;
45206;SDS011;30950;53.086;21.576;2022-09-14T10:46:02;3.53;;;1.92;;
45206;SDS011;30950;53.086;21.576;2022-09-14T10:49:03;6.15;;;2.20;;
45206;SDS011;30950;53.086;21.576;2022-09-14T10:51:38;5.18;;;2.35;;
45206;SDS011;30950;53.086;21.576;2022-09-14T10:54:26;6.38;;;2.30;;
45206;SDS011;30950;53.086;21.576;2022-09-14T10:59:46;3.38;;;2.05;;
45206;SDS011;30950;53.086;21.576;2022-09-14T11:07:35;4.18;;;2.17;;
45206;SDS011;30950;53.086;21.576;2022-09-14T11:26:08;5.45;;;2.40;;
45206;SDS011;30950;53.086;21.576;2022-09-14T11:28:43;4.20;;;2.07;;
45206;SDS011;30950;53.086;21.576;2022-09-14T11:31:27;5.90;;;2.13;;
45206;SDS011;30950;53.086;21.576;2022-09-14T11:36:34;3.28;;;1.83;;
45206;SDS011;30950;53.086;21.576;2022-09-14T11:39:12;4.88;;;2.60;;
45206;SDS011;30950;53.086;21.576;2022-09-14T11:42:00;4.20;;;2.10;;
45206;SDS011;30950;53.086;21.576;2022-09-14T11:44:35;6.38;;;2.22;;
45206;SDS011;30950;53.086;21.576;2022-09-14T11:47:07;4.18;;;2.20;;
45206;SDS011;30950;53.086;21.576;2022-09-14T11:49:44;6.25;;;2.20;;
45206;SDS011;30950;53.086;21.576;2022-09-14T11:52:17;6.55;;;2.20;;
45206;SDS011;30950;53.086;21.576;2022-09-14T11:54:47;6.30;;;2.17;;
45206;SDS011;30950;53.086;21.576;2022-09-14T11:57:16;6.40;;;2.20;;
45206;SDS011;30950;53.086;21.576;2022-09-14T12:00:02;3.83;;;1.88;;
45206;SDS011;30950;53.086;21.576;2022-09-14T12:12:55;6.70;;;2.20;;
45206;SDS011;30950;53.086;21.576;2022-09-14T12:15:33;5.45;;;2.00;;
45206;SDS011;30950;53.086;21.576;2022-09-14T12:25:53;2.88;;;1.90;;
45206;SDS011;30950;53.086;21.576;2022-09-14T12:28:28;4.97;;;1.90;;
45206;SDS011;30950;53.086;21.576;2022-09-14T12:31:08;5.30;;;1.88;;
45206;SDS011;30950;53.086;21.576;2022-09-14T12:39:21;5.35;;;2.30;;
45206;SDS011;30950;53.086;21.576;2022-09-14T12:47:49;4.65;;;2.33;;
45206;SDS011;30950;53.086;21.576;2022-09-14T12:49:51;5.72;;;2.10;;
45206;SDS011;30950;53.086;21.576;2022-09-14T13:00:21;5.45;;;2.55;;
45206;SDS011;30950;53.086;21.576;2022-09-14T13:03:01;3.80;;;1.90;;
45206;SDS011;30950;53.086;21.576;2022-09-14T13:05:35;5.32;;;1.80;;
45206;SDS011;30950;53.086;21.576;2022-09-14T13:08:09;3.65;;;1.70;;
45206;SDS011;30950;53.086;21.576;2022-09-14T13:10:45;3.92;;;1.90;;
45206;SDS011;30950;53.086;21.576;2022-09-14T13:13:18;4.70;;;2.03;;
45206;SDS011;30950;53.086;21.576;2022-09-14T13:15:54;5.20;;;2.42;;
45206;SDS011;30950;53.086;21.576;2022-09-14T13:18:32;4.75;;;2.15;;
45206;SDS011;30950;53.086;21.576;2022-09-14T13:21:22;4.95;;;2.10;;
45206;SDS011;30950;53.086;21.576;2022-09-14T13:23:50;3.70;;;2.15;;
45206;SDS011;30950;53.086;21.576;2022-09-14T13:26:18;3.90;;;2.00;;
45206;SDS011;30950;53.086;21.576;2022-09-14T13:28:49;3.42;;;1.90;;
45206;SDS011;30950;53.086;21.576;2022-09-14T13:31:30;5.32;;;2.10;;
45206;SDS011;30950;53.086;21.576;2022-09-14T13:34:00;4.38;;;1.70;;
45206;SDS011;30950;53.086;21.576;2022-09-14T13:36:35;3.28;;;1.90;;
45206;SDS011;30950;53.086;21.576;2022-09-14T13:41:53;4.28;;;2.05;;
45206;SDS011;30950;53.086;21.576;2022-09-14T13:44:22;3.45;;;2.10;;
45206;SDS011;30950;53.086;21.576;2022-09-14T13:47:13;4.15;;;2.05;;
45206;SDS011;30950;53.086;21.576;2022-09-14T13:49:45;7.13;;;1.70;;
45206;SDS011;30950;53.086;21.576;2022-09-14T13:52:17;5.03;;;1.85;;
45206;SDS011;30950;53.086;21.576;2022-09-14T13:54:48;3.67;;;1.80;;
45206;SDS011;30950;53.086;21.576;2022-09-14T13:57:22;3.72;;;1.80;;
45206;SDS011;30950;53.086;21.576;2022-09-14T14:02:42;4.88;;;1.98;;
45206;SDS011;30950;53.086;21.576;2022-09-14T14:05:22;3.10;;;1.70;;
45206;SDS011;30950;53.086;21.576;2022-09-14T14:07:56;4.00;;;2.03;;
45206;SDS011;30950;53.086;21.576;2022-09-14T14:12:59;5.63;;;2.25;;
45206;SDS011;30950;53.086;21.576;2022-09-14T14:17:55;6.20;;;2.90;;
45206;SDS011;30950;53.086;21.576;2022-09-14T14:22:54;5.10;;;2.28;;
45206;SDS011;30950;53.086;21.576;2022-09-14T14:25:27;4.50;;;2.22;;
45206;SDS011;30950;53.086;21.576;2022-09-14T14:28:21;2.92;;;1.60;;
45206;SDS011;30950;53.086;21.576;2022-09-14T14:30:56;3.28;;;1.80;;
45206;SDS011;30950;53.086;21.576;2022-09-14T14:33:25;4.43;;;1.73;;
45206;SDS011;30950;53.086;21.576;2022-09-14T14:35:53;5.55;;;1.70;;
45206;SDS011;30950;53.086;21.576;2022-09-14T14:38:22;4.82;;;1.85;;
45206;SDS011;30950;53.086;21.576;2022-09-14T14:40:51;5.10;;;1.92;;
45206;SDS011;30950;53.086;21.576;2022-09-14T14:43:21;3.08;;;1.70;;
45206;SDS011;30950;53.086;21.576;2022-09-14T14:45:55;8.10;;;1.90;;
45206;SDS011;30950;53.086;21.576;2022-09-14T14:48:24;10.98;;;2.28;;
45206;SDS011;30950;53.086;21.576;2022-09-14T14:50:53;4.82;;;1.73;;
45206;SDS011;30950;53.086;21.576;2022-09-14T14:53:24;3.42;;;1.80;;
45206;SDS011;30950;53.086;21.576;2022-09-14T14:55:52;4.30;;;1.80;;
45206;SDS011;30950;53.086;21.576;2022-09-14T14:58:20;3.70;;;1.90;;
45206;SDS011;30950;53.086;21.576;2022-09-14T15:00:47;5.22;;;1.95;;
45206;SDS011;30950;53.086;21.576;2022-09-14T15:03:16;4.57;;;2.00;;
45206;SDS011;30950;53.086;21.576;2022-09-14T15:05:47;3.95;;;1.90;;
45206;SDS011;30950;53.086;21.576;2022-09-14T15:08:15;8.00;;;1.95;;
45206;SDS011;30950;53.086;21.576;2022-09-14T15:10:45;2.83;;;1.70;;
45206;SDS011;30950;53.086;21.576;2022-09-14T15:13:14;4.78;;;1.98;;
45206;SDS011;30950;53.086;21.576;2022-09-14T15:15:41;6.63;;;2.38;;
45206;SDS011;30950;53.086;21.576;2022-09-14T15:18:10;3.75;;;1.70;;
45206;SDS011;30950;53.086;21.576;2022-09-14T15:20:37;3.85;;;1.83;;
45206;SDS011;30950;53.086;21.576;2022-09-14T15:23:04;6.07;;;1.80;;
45206;SDS011;30950;53.086;21.576;2022-09-14T15:25:32;3.47;;;1.73;;
45206;SDS011;30950;53.086;21.576;2022-09-14T15:27:59;4.18;;;2.00;;
45206;SDS011;30950;53.086;21.576;2022-09-14T15:30:26;4.93;;;2.05;;
45206;SDS011;30950;53.086;21.576;2022-09-14T15:32:54;4.88;;;2.30;;
45206;SDS011;30950;53.086;21.576;2022-09-14T15:35:21;4.28;;;2.35;;
45206;SDS011;30950;53.086;21.576;2022-09-14T15:37:48;7.03;;;2.47;;
45206;SDS011;30950;53.086;21.576;2022-09-14T15:40:16;4.10;;;2.20;;
45206;SDS011;30950;53.086;21.576;2022-09-14T15:42:43;6.43;;;2.65;;
45206;SDS011;30950;53.086;21.576;2022-09-14T15:45:10;5.22;;;2.08;;
45206;SDS011;30950;53.086;21.576;2022-09-14T15:47:40;4.43;;;2.05;;
45206;SDS011;30950;53.086;21.576;2022-09-14T15:50:08;4.25;;;2.47;;
45206;SDS011;30950;53.086;21.576;2022-09-14T15:52:36;3.72;;;2.05;;
45206;SDS011;30950;53.086;21.576;2022-09-14T15:55:05;4.57;;;2.20;;
45206;SDS011;30950;53.086;21.576;2022-09-14T15:57:34;8.70;;;3.35;;
45206;SDS011;30950;53.086;21.576;2022-09-14T16:00:07;5.10;;;2.55;;
45206;SDS011;30950;53.086;21.576;2022-09-14T16:02:39;8.57;;;3.10;;
45206;SDS011;30950;53.086;21.576;2022-09-14T16:05:07;8.48;;;2.97;;
45206;SDS011;30950;53.086;21.576;2022-09-14T16:07:34;5.90;;;2.78;;
45206;SDS011;30950;53.086;21.576;2022-09-14T16:10:02;8.05;;;3.10;;
45206;SDS011;30950;53.086;21.576;2022-09-14T16:12:29;6.30;;;2.53;;
45206;SDS011;30950;53.086;21.576;2022-09-14T16:14:56;5.88;;;2.83;;
45206;SDS011;30950;53.086;21.576;2022-09-14T16:17:24;12.65;;;5.65;;
45206;SDS011;30950;53.086;21.576;2022-09-14T16:19:51;12.38;;;5.50;;
45206;SDS011;30950;53.086;21.576;2022-09-14T16:22:18;16.88;;;7.47;;
45206;SDS011;30950;53.086;21.576;2022-09-14T16:24:47;19.77;;;8.30;;
45206;SDS011;30950;53.086;21.576;2022-09-14T16:27:14;22.25;;;10.85;;
45206;SDS011;30950;53.086;21.576;2022-09-14T16:29:42;20.67;;;10.52;;
45206;SDS011;30950;53.086;21.576;2022-09-14T16:32:09;17.45;;;7.68;;
45206;SDS011;30950;53.086;21.576;2022-09-14T16:34:37;10.70;;;5.75;;
45206;SDS011;30950;53.086;21.576;2022-09-14T16:37:04;10.13;;;4.35;;
45206;SDS011;30950;53.086;21.576;2022-09-14T16:39:31;10.85;;;5.38;;
45206;SDS011;30950;53.086;21.576;2022-09-14T16:42:00;9.57;;;4.22;;
45206;SDS011;30950;53.086;21.576;2022-09-14T16:44:28;10.70;;;5.50;;
45206;SDS011;30950;53.086;21.576;2022-09-14T16:46:56;13.98;;;6.70;;
45206;SDS011;30950;53.086;21.576;2022-09-14T16:49:24;8.05;;;4.43;;
45206;SDS011;30950;53.086;21.576;2022-09-14T16:51:55;10.52;;;5.53;;
45206;SDS011;30950;53.086;21.576;2022-09-14T16:54:23;11.43;;;4.40;;
45206;SDS011;30950;53.086;21.576;2022-09-14T16:56:51;5.95;;;3.47;;
45206;SDS011;30950;53.086;21.576;2022-09-14T16:59:24;8.05;;;3.53;;
45206;SDS011;30950;53.086;21.576;2022-09-14T17:01:51;5.57;;;2.97;;
45206;SDS011;30950;53.086;21.576;2022-09-14T17:04:21;7.57;;;4.70;;